Cape Ann — WYJ4022 — position and weather

sailwx.info

Track history (hours):
 
Tides and Currents Weather Stations Pressure Air Temp Water Temp Dewpoint Dewpoint Depression Visibility Wind Speed Wind Dir Waves Ship Positions

Cape Ann

Last reported at 2018-May-24 07:30 UTC. Time now 2018-May-24 07:41 UTC.
Position N 30°01' W 093°60'.

Length 30 m.

MMSI: 366967350.

Date/timePositionNaut miles runAvg speedWind from/ knotsBaromVisibWave heightAir tempDewpointWater temp
2018-May-24 07:30N 30°01' W 093°60'2 4.8
2018-May-24 07:00N 30°02' W 094°02'4 7.5
2018-May-24 06:30N 30°05' W 094°05'0 0.0
2018-May-24 06:00N 30°05' W 094°05'0 0.0
2018-May-24 05:30N 30°05' W 094°05'0 0.0
2018-May-24 05:00N 30°05' W 094°05'0 0.0
2018-May-24 04:11N 30°05' W 094°05'0 0.0
2018-May-24 04:00N 30°05' W 094°05'0 0.0
2018-May-24 03:30N 30°05' W 094°05'0 0.0
2018-May-24 03:00N 30°05' W 094°05'0 0.0
2018-May-24 02:31N 30°05' W 094°05'0 0.0
2018-May-24 02:00N 30°05' W 094°05'0 0.0
2018-May-24 01:30N 30°05' W 094°05'0 0.0
2018-May-24 01:00N 30°05' W 094°05'0 0.0
2018-May-24 00:30N 30°05' W 094°05'0 0.0
2018-May-24 00:00N 30°05' W 094°05'0 0.0
2018-May-23 23:30N 30°05' W 094°05'0 0.0
2018-May-23 23:00N 30°05' W 094°05'0 0.0
2018-May-23 22:30N 30°05' W 094°05'0 0.0
2018-May-23 22:00N 30°05' W 094°05'0 0.0
2018-May-23 21:29N 30°05' W 094°05'0 0.0
2018-May-23 21:00N 30°05' W 094°05'0 0.9
2018-May-23 20:30N 30°05' W 094°04'3 6.4
2018-May-23 20:00N 30°02' W 094°02'0 0.3
2018-May-23 19:30N 30°02' W 094°02'0 0.2
2018-May-23 19:00N 30°02' W 094°02'1 2.3
2018-May-23 18:30N 30°01' W 094°01'1 2.3
2018-May-23 18:00N 30°02' W 094°02'4 7.2
2018-May-23 17:31N 30°05' W 094°05'0 0.0
2018-May-23 17:00N 30°05' W 094°05'0 0.0
2018-May-23 16:30N 30°05' W 094°05'0 0.0
2018-May-23 16:00N 30°05' W 094°05'0 0.0
2018-May-23 15:30N 30°05' W 094°05'0 0.0
2018-May-23 15:00N 30°05' W 094°05'0 0.0
2018-May-23 14:30N 30°05' W 094°05'0 0.0
2018-May-23 14:00N 30°05' W 094°05'1 2.8
2018-May-23 13:30N 30°04' W 094°03'3 5.4
2018-May-23 13:00N 30°02' W 094°02'1 1.3
2018-May-23 12:30N 30°01' W 094°02'4 8.4
2018-May-23 12:00N 30°00' W 093°57'2 4.7
2018-May-23 11:30N 30°01' W 093°60'0 0.0
2018-May-23 11:00N 30°01' W 093°60'2 3.8
2018-May-23 10:30N 30°01' W 094°02'1 2.3
2018-May-23 10:00N 30°03' W 094°02'0 0.0
2018-May-23 09:30N 30°03' W 094°02'0 0.0
2018-May-23 08:58N 30°03' W 094°02'0 0.0
2018-May-23 08:30N 30°03' W 094°02'0 0.0
2018-May-23 08:00N 30°03' W 094°02'0 0.0
2018-May-23 07:29N 30°03' W 094°02'0 0.0
2018-May-23 07:00N 30°03' W 094°02'0 0.0
2018-May-23 06:30N 30°03' W 094°02'0 0.0
2018-May-23 05:59N 30°03' W 094°02'0 0.0
2018-May-23 05:30N 30°03' W 094°02'0 0.0
2018-May-23 05:00N 30°03' W 094°02'0 0.0
2018-May-23 04:30N 30°03' W 094°02'0 0.0
2018-May-23 03:58N 30°03' W 094°02'0 0.3
2018-May-23 03:30N 30°02' W 094°02'0 0.1
2018-May-23 03:00N 30°02' W 094°02'0 0.0
2018-May-23 02:30N 30°02' W 094°02'0 0.8
2018-May-23 02:00N 30°02' W 094°02'1 2.3
2018-May-23 01:30N 30°01' W 094°01'0 0.0
2018-May-23 01:00N 30°01' W 094°01'3 5.7
2018-May-23 00:30N 30°01' W 093°58'4 8.5
2018-May-23 00:00N 29°59' W 093°53'2 0.2
2018-May-22 15:57N 29°58' W 093°51'0 0.8
2018-May-22 15:31N 29°58' W 093°51'3 6.0
2018-May-22 15:00N 29°59' W 093°48'4 7.3
2018-May-22 14:30N 30°01' W 093°45'3 5.3
2018-May-22 14:00N 30°04' W 093°43'0 0.4
2018-May-22 13:16N 30°04' W 093°43'0 0.0
2018-May-22 07:14N 30°04' W 093°43'0 0.0
2018-May-22 06:52N 30°04' W 093°43'0 0.0
2018-May-22 06:29N 30°04' W 093°43'0 0.0
2018-May-22 05:59N 30°04' W 093°43'0 0.1
2018-May-22 01:07N 30°04' W 093°43'1 8.3
2018-May-22 01:01N 30°03' W 093°43'4 8.4
2018-May-22 00:30N 29°60' W 093°47'4 8.9
2018-May-22 00:01N 29°58' W 093°51'5 9.5
2018-May-21 23:30N 29°60' W 093°57'4 7.3
2018-May-21 23:01N 30°01' W 094°01'2 3.4
2018-May-21 22:30N 30°02' W 094°02'0 0.0
2018-May-21 22:01N 30°02' W 094°02'0 0.8
2018-May-21 21:30N 30°02' W 094°02'1 1.9
2018-May-21 21:01N 30°01' W 094°01'3 5.1
2018-May-21 20:30N 30°01' W 093°58'4 7.3
2018-May-21 20:01N 29°59' W 093°54'3 5.8
2018-May-21 19:31N 29°58' W 093°51'0 0.0
2018-May-21 19:00N 29°58' W 093°51'0 0.0
2018-May-21 18:30N 29°58' W 093°51'0 0.0
2018-May-21 18:01N 29°58' W 093°51'0 0.0
2018-May-21 17:30N 29°58' W 093°51'0 0.0
2018-May-21 17:00N 29°58' W 093°51'0 0.0
2018-May-21 16:31N 29°58' W 093°51'0 0.0
2018-May-21 16:00N 29°58' W 093°51'0 0.0
2018-May-21 15:30N 29°58' W 093°51'0 0.0
2018-May-21 14:59N 29°58' W 093°51'0 0.0
2018-May-21 14:30N 29°58' W 093°51'0 0.1
2018-May-21 14:00N 29°58' W 093°51'3 6.5
2018-May-21 13:30N 29°59' W 093°55'3 6.0
2018-May-21 13:00N 30°01' W 093°58'1 2.8
2018-May-21 12:31N 30°01' W 093°60'0 0.0
2018-May-21 12:00N 30°01' W 093°60'0 0.5
2018-May-21 11:30N 30°01' W 093°60'1 1.5
2018-May-21 11:00N 30°01' W 093°59'0 1.0
2018-May-21 10:31N 30°01' W 093°58'4 8.0
2018-May-21 10:00N 29°59' W 093°54'3 6.2
2018-May-21 09:30N 29°57' W 093°52'1 2.2
2018-May-21 09:01N 29°56' W 093°53'0 0.1
2018-May-21 08:30N 29°56' W 093°52'2 4.9
2018-May-21 08:01N 29°58' W 093°51'2 3.2
2018-May-21 07:31N 29°56' W 093°52'2 3.1
2018-May-21 07:00N 29°58' W 093°51'0 0.2
2018-May-21 06:30N 29°58' W 093°51'0 0.0
2018-May-21 06:01N 29°58' W 093°51'0 0.0
2018-May-21 05:31N 29°58' W 093°51'0 0.0
2018-May-21 05:00N 29°58' W 093°51'0 0.0
2018-May-21 04:28N 29°58' W 093°51'0 0.0
2018-May-21 04:01N 29°58' W 093°51'0 0.0
2018-May-21 03:31N 29°58' W 093°51'0 0.0
2018-May-21 03:01N 29°58' W 093°51'2 4.4
2018-May-21 02:30N 29°56' W 093°52'0 0.4
2018-May-21 02:00N 29°56' W 093°52'2 4.0
2018-May-21 01:30N 29°58' W 093°51'0 0.0
2018-May-21 01:01N 29°58' W 093°51'3 5.9
2018-May-21 00:30N 29°59' W 093°55'4 8.4
2018-May-21 00:00N 30°01' W 093°59'0 0.0
2018-May-20 23:31N 30°01' W 093°59'0 0.0
2018-May-20 23:01N 30°01' W 093°59'0 0.7
2018-May-20 22:30N 30°01' W 093°59'1 1.5
2018-May-20 22:00N 30°01' W 093°58'0 0.0
2018-May-20 21:30N 30°01' W 093°58'1 1.8
2018-May-20 21:01N 30°00' W 093°59'0 0.5
2018-May-20 20:31N 30°01' W 093°59'1 1.2
2018-May-20 20:01N 30°01' W 093°58'0 0.0
2018-May-20 19:31N 30°01' W 093°58'0 0.0
2018-May-20 19:01N 30°01' W 093°58'0 0.0
2018-May-20 18:31N 30°01' W 093°58'0 0.0
2018-May-20 18:00N 30°01' W 093°58'0 0.0
2018-May-20 17:30N 30°01' W 093°58'0 0.0
2018-May-20 17:01N 30°01' W 093°58'0 0.0
2018-May-20 16:31N 30°01' W 093°58'1 1.1
2018-May-20 16:01N 30°01' W 093°57'5 9.3
2018-May-20 15:30N 29°59' W 093°52'4 7.5
2018-May-20 15:00N 29°55' W 093°53'5 9.3
2018-May-20 14:30N 29°51' W 093°56'0 0.3
2018-May-20 14:01N 29°52' W 093°56'0 0.1
2018-May-20 13:30N 29°52' W 093°56'0 0.0
2018-May-20 13:00N 29°52' W 093°56'4 7.8
2018-May-20 12:30N 29°55' W 093°54'4 8.7
2018-May-20 12:00N 29°59' W 093°52'510.0
2018-May-20 11:31N 29°60' W 093°57'5 9.3
2018-May-20 11:01N 30°02' W 094°02'3 5.2
2018-May-20 10:30N 30°04' W 094°03'0 0.0
2018-May-20 10:00N 30°04' W 094°03'1 1.1
2018-May-20 09:30N 30°04' W 094°03'2 2.4
2018-May-20 08:46N 30°05' W 094°05'0 0.0
2018-May-20 08:30N 30°05' W 094°05'0 0.0
2018-May-20 08:00N 30°05' W 094°05'0 0.0
2018-May-20 07:30N 30°05' W 094°05'0 0.0
2018-May-20 07:00N 30°05' W 094°05'0 0.0
2018-May-20 06:30N 30°05' W 094°05'0 0.0
2018-May-20 06:00N 30°05' W 094°05'0 0.0
2018-May-20 05:30N 30°05' W 094°05'0 0.0
2018-May-20 04:59N 30°05' W 094°05'0 0.0
2018-May-20 04:30N 30°05' W 094°05'0 0.0
2018-May-20 04:00N 30°05' W 094°05'0 0.0
2018-May-20 03:30N 30°05' W 094°05'0 0.0
2018-May-20 03:00N 30°05' W 094°05'0 0.0
2018-May-20 02:30N 30°05' W 094°05'0 0.0
2018-May-20 02:00N 30°05' W 094°05'0 0.0
2018-May-20 01:30N 30°05' W 094°05'0 0.0
2018-May-20 01:00N 30°05' W 094°05'0 0.0
2018-May-20 00:30N 30°05' W 094°05'0 0.0
2018-May-20 00:00N 30°05' W 094°05'0 0.0
2018-May-19 23:29N 30°05' W 094°05'0 0.0
2018-May-19 22:56N 30°05' W 094°05'1 1.9
2018-May-19 22:30N 30°05' W 094°04'0 0.0
2018-May-19 22:00N 30°05' W 094°04'0 0.2
2018-May-19 21:30N 30°05' W 094°04'4 7.1
2018-May-19 21:00N 30°01' W 094°02'2 4.1
2018-May-19 20:30N 30°01' W 093°60'0 0.0
2018-May-19 20:00N 30°01' W 093°60'0 0.0
2018-May-19 19:30N 30°01' W 093°60'0 0.0
2018-May-19 19:00N 30°01' W 093°60'0 0.0
2018-May-19 18:30N 30°01' W 093°60'0 0.0
2018-May-19 18:00N 30°01' W 093°60'0 0.0
2018-May-19 17:30N 30°01' W 093°60'0 0.0
2018-May-19 17:00N 30°01' W 093°60'0 0.0
2018-May-19 16:30N 30°01' W 093°60'0 0.0
2018-May-19 16:00N 30°01' W 093°60'0 0.0
2018-May-19 15:30N 30°01' W 093°60'0 0.0
2018-May-19 15:00N 30°01' W 093°60'0 0.0
2018-May-19 14:30N 30°01' W 093°60'0 0.0
2018-May-19 14:00N 30°01' W 093°60'0 0.0
2018-May-19 13:30N 30°01' W 093°60'0 0.0
2018-May-19 13:00N 30°01' W 093°60'0 0.0
2018-May-19 12:30N 30°01' W 093°60'0 0.0
2018-May-19 12:00N 30°01' W 093°60'0 0.0
2018-May-19 11:30N 30°01' W 093°60'0 0.0
2018-May-19 11:00N 30°01' W 093°60'0 0.0
2018-May-19 10:30N 30°01' W 093°60'0 0.0
2018-May-19 10:00N 30°01' W 093°60'0 0.0
2018-May-19 09:30N 30°01' W 093°60'0 0.0
2018-May-19 09:00N 30°01' W 093°60'0 0.0
2018-May-19 08:30N 30°01' W 093°60'0 0.0
2018-May-19 08:00N 30°01' W 093°60'0 0.0
2018-May-19 07:30N 30°01' W 093°60'0 0.0
2018-May-19 07:00N 30°01' W 093°60'1 1.2
2018-May-19 06:30N 30°00' W 093°59'0 0.2
2018-May-19 06:00N 30°01' W 093°59'0 0.7
2018-May-19 05:30N 30°01' W 093°59'1 1.8
2018-May-19 05:00N 30°01' W 093°60'0 0.0
2018-May-19 04:30N 30°01' W 093°60'0 0.0
2018-May-19 04:00N 30°01' W 093°60'0 0.0
2018-May-19 03:30N 30°01' W 093°60'0 0.0
2018-May-19 03:00N 30°01' W 093°60'0 0.0
2018-May-19 02:30N 30°01' W 093°60'0 0.0
2018-May-19 02:00N 30°01' W 093°60'0 0.0
2018-May-19 01:30N 30°01' W 093°60'0 0.0
2018-May-19 01:00N 30°01' W 093°60'0 0.0
2018-May-19 00:30N 30°01' W 093°60'0 0.0
2018-May-19 00:00N 30°01' W 093°60'0 0.5
2018-May-18 23:30N 30°01' W 093°60'0 0.2
2018-May-18 23:00N 30°01' W 093°60'1 1.6
2018-May-18 22:30N 30°01' W 093°59'1 1.5
2018-May-18 22:00N 30°01' W 093°58'0 0.0
2018-May-18 21:30N 30°01' W 093°58'0 0.0
2018-May-18 21:00N 30°01' W 093°58'0 0.0
2018-May-18 20:30N 30°01' W 093°58'2 4.9
2018-May-18 20:00N 29°59' W 093°56'4 8.1
2018-May-18 19:30N 29°58' W 093°51'510.0
2018-May-18 19:00N 29°54' W 093°54'2 4.7
2018-May-18 18:30N 29°52' W 093°56'0 0.0
2018-May-18 18:00N 29°52' W 093°56'0 0.0
2018-May-18 17:30N 29°52' W 093°56'0 0.0
2018-May-18 17:00N 29°52' W 093°56'0 0.0
2018-May-18 16:30N 29°52' W 093°56'0 0.0
2018-May-18 16:00N 29°52' W 093°56'0 0.0
2018-May-18 15:30N 29°52' W 093°56'0 0.0
2018-May-18 15:00N 29°52' W 093°56'0 0.0
2018-May-18 14:30N 29°52' W 093°56'0 0.0
2018-May-18 14:00N 29°52' W 093°56'0 0.0
2018-May-18 13:30N 29°52' W 093°56'0 0.0
2018-May-18 13:00N 29°52' W 093°56'0 0.0
2018-May-18 12:30N 29°52' W 093°56'0 0.0
2018-May-18 12:00N 29°52' W 093°56'0 0.0
2018-May-18 11:30N 29°52' W 093°56'0 0.0
2018-May-18 11:00N 29°52' W 093°56'0 0.0
2018-May-18 10:30N 29°52' W 093°56'0 0.0
2018-May-18 10:00N 29°52' W 093°56'0 0.0
2018-May-18 09:30N 29°52' W 093°56'2 4.9
2018-May-18 09:00N 29°50' W 093°58'1 2.6
2018-May-18 08:30N 29°51' W 093°58'0 0.1
2018-May-18 08:00N 29°51' W 093°58'1 1.4
2018-May-18 07:30N 29°50' W 093°58'2 3.9
2018-May-18 07:00N 29°48' W 093°57'2 3.0
2018-May-18 06:30N 29°50' W 093°58'0 0.0
2018-May-18 06:00N 29°50' W 093°58'0 0.0
2018-May-18 05:30N 29°50' W 093°58'0 0.0
2018-May-18 05:00N 29°50' W 093°58'0 0.0
2018-May-18 04:30N 29°50' W 093°58'0 0.0
2018-May-18 04:00N 29°50' W 093°58'0 0.0
2018-May-18 03:30N 29°50' W 093°58'0 1.0
2018-May-18 03:00N 29°50' W 093°58'1 1.5
2018-May-18 02:30N 29°51' W 093°58'0 0.0
2018-May-18 02:00N 29°51' W 093°58'1 1.1
2018-May-18 01:30N 29°50' W 093°58'2 4.2
2018-May-18 01:00N 29°48' W 093°57'1 2.4
2018-May-18 00:30N 29°50' W 093°58'2 3.1
2018-May-18 00:00N 29°51' W 093°58'0 0.2
2018-May-17 23:30N 29°51' W 093°58'1 2.4
2018-May-17 23:00N 29°50' W 093°58'1 2.0
2018-May-17 22:30N 29°51' W 093°58'0 0.0
2018-May-17 22:00N 29°51' W 093°58'1 2.3
2018-May-17 21:30N 29°50' W 093°57'2 3.5
2018-May-17 21:00N 29°52' W 093°56'0 0.0
2018-May-17 20:30N 29°52' W 093°56'0 0.0
2018-May-17 20:00N 29°52' W 093°56'0 0.0
2018-May-17 19:30N 29°52' W 093°56'0 0.0
2018-May-17 18:59N 29°52' W 093°56'0 0.0
2018-May-17 18:30N 29°52' W 093°56'0 0.0
2018-May-17 18:00N 29°52' W 093°56'0 0.0
2018-May-17 17:29N 29°52' W 093°56'0 0.0
2018-May-17 17:00N 29°52' W 093°56'0 0.0
2018-May-17 16:30N 29°52' W 093°56'0 0.0
2018-May-17 15:59N 29°52' W 093°56'0 0.0
2018-May-17 15:30N 29°52' W 093°56'0 0.0
2018-May-17 15:00N 29°52' W 093°56'0 0.0
2018-May-17 14:30N 29°52' W 093°56'0 0.0
2018-May-17 14:00N 29°52' W 093°56'3 5.6
2018-May-17 13:30N 29°54' W 093°54'3 5.3
2018-May-17 13:00N 29°56' W 093°52'0 0.1
2018-May-17 12:30N 29°56' W 093°53'2 3.8
2018-May-17 12:00N 29°57' W 093°51'3 6.3
2018-May-17 11:30N 29°59' W 093°54'0 0.1
2018-May-17 11:00N 29°59' W 093°54'3 5.7
2018-May-17 10:30N 29°58' W 093°51'0 0.0
2018-May-17 10:00N 29°58' W 093°51'0 0.0
2018-May-17 09:30N 29°58' W 093°51'0 0.0
2018-May-17 09:00N 29°58' W 093°51'0 0.0
2018-May-17 08:30N 29°58' W 093°51'0 0.0
2018-May-17 08:00N 29°58' W 093°51'0 0.0
2018-May-17 07:30N 29°58' W 093°51'0 0.0
2018-May-17 07:00N 29°58' W 093°51'0 0.0
2018-May-17 06:30N 29°58' W 093°51'0 0.0
2018-May-17 05:59N 29°58' W 093°51'0 0.0
2018-May-17 05:30N 29°58' W 093°51'0 0.0
2018-May-17 05:00N 29°58' W 093°51'0 0.0
2018-May-17 04:30N 29°58' W 093°51'0 0.0
2018-May-17 04:00N 29°58' W 093°51'0 0.0
2018-May-17 03:30N 29°58' W 093°51'0 0.0
2018-May-17 03:00N 29°58' W 093°51'0 0.0
2018-May-17 02:30N 29°58' W 093°51'0 0.0
2018-May-17 02:00N 29°58' W 093°51'0 0.0
2018-May-17 01:30N 29°58' W 093°51'0 0.0
2018-May-17 01:00N 29°58' W 093°51'0 0.0
2018-May-17 00:30N 29°58' W 093°51'0 0.0
2018-May-17 00:00N 29°58' W 093°51'0 0.0
2018-May-16 23:30N 29°58' W 093°51'0 0.0
2018-May-16 23:00N 29°58' W 093°51'0 0.0
2018-May-16 22:30N 29°58' W 093°51'1 1.3
2018-May-16 22:00N 29°59' W 093°52'4 8.7
2018-May-16 21:30N 29°60' W 093°56'3 5.7
2018-May-16 21:00N 30°01' W 093°60'0 0.0
2018-May-16 20:30N 30°01' W 093°60'3 5.4
2018-May-16 20:00N 29°60' W 093°57'4 8.5
2018-May-16 19:30N 29°59' W 093°52'1 1.4
2018-May-16 19:00N 29°58' W 093°51'0 0.0
2018-May-16 18:30N 29°58' W 093°51'0 0.0
2018-May-16 18:00N 29°58' W 093°51'0 0.0
2018-May-16 17:30N 29°58' W 093°51'0 0.0
2018-May-16 16:59N 29°58' W 093°51'1 2.3
2018-May-16 16:30N 29°59' W 093°52'1 1.5
2018-May-16 16:00N 29°59' W 093°53'2 3.5
2018-May-16 15:30N 29°58' W 093°51'0 0.5
2018-May-16 15:00N 29°58' W 093°51'0 0.0
2018-May-16 14:30N 29°58' W 093°51'0 0.0
2018-May-16 14:00N 29°58' W 093°51'0 0.0
2018-May-16 13:30N 29°58' W 093°51'1 1.3
2018-May-16 12:59N 29°59' W 093°52'4 8.8
2018-May-16 12:30N 29°60' W 093°56'5 9.6
2018-May-16 12:00N 30°01' W 094°02'4 8.5
2018-May-16 11:30N 30°05' W 094°05'0 0.0
2018-May-16 11:00N 30°05' W 094°05'0 0.2
2018-May-16 10:30N 30°05' W 094°05'0 0.0
2018-May-16 09:53N 30°05' W 094°05'0 0.0
2018-May-16 09:30N 30°05' W 094°05'0 0.0
2018-May-16 08:57N 30°05' W 094°05'0 0.0
2018-May-16 08:30N 30°05' W 094°05'0 0.0
2018-May-16 08:00N 30°05' W 094°05'0 0.0
2018-May-16 07:29N 30°05' W 094°05'0 0.0
2018-May-16 06:57N 30°05' W 094°05'0 0.0
2018-May-16 06:29N 30°05' W 094°05'0 0.0
2018-May-16 05:59N 30°05' W 094°05'0 0.0
2018-May-16 05:28N 30°05' W 094°05'0 0.0
2018-May-16 05:00N 30°05' W 094°05'0 0.0
2018-May-16 04:30N 30°05' W 094°05'0 0.0
2018-May-16 04:00N 30°05' W 094°05'0 0.0
2018-May-16 03:29N 30°05' W 094°05'0 0.0
2018-May-16 02:58N 30°05' W 094°05'0 0.0
2018-May-16 02:30N 30°05' W 094°05'0 0.0
2018-May-16 02:00N 30°05' W 094°05'0 0.0
2018-May-16 01:30N 30°05' W 094°05'0 0.0
2018-May-16 01:00N 30°05' W 094°05'0 0.0
2018-May-16 00:29N 30°05' W 094°05'3 6.9
2018-May-16 00:00N 30°02' W 094°02'0 0.9
2018-May-15 23:30N 30°02' W 094°02'0 0.2
2018-May-15 23:00N 30°02' W 094°02'4 7.2
2018-May-15 22:30N 30°01' W 093°58'2 4.0
2018-May-15 22:00N 29°60' W 093°56'0 0.0
2018-May-15 21:30N 29°60' W 093°56'2 3.4
2018-May-15 21:00N 29°59' W 093°54'1 1.0
2018-May-15 20:30N 29°59' W 093°55'4 8.6
2018-May-15 20:00N 30°01' W 093°60'0 0.4
2018-May-15 19:30N 30°01' W 093°60'0 0.0
2018-May-15 19:00N 30°01' W 093°60'0 0.0
2018-May-15 18:30N 30°01' W 093°60'0 0.0
2018-May-15 18:00N 30°01' W 093°60'0 0.0
2018-May-15 17:30N 30°01' W 093°60'0 0.0
2018-May-15 17:00N 30°01' W 093°60'0 0.0
2018-May-15 16:30N 30°01' W 093°60'0 0.0
2018-May-15 16:00N 30°01' W 093°60'0 0.0
2018-May-15 15:30N 30°01' W 093°60'0 0.0
2018-May-15 15:00N 30°01' W 093°60'0 0.0
2018-May-15 14:30N 30°01' W 093°60'0 0.0
2018-May-15 14:00N 30°01' W 093°60'0 0.0
2018-May-15 13:30N 30°01' W 093°60'0 0.0
2018-May-15 13:00N 30°01' W 093°60'0 0.0
2018-May-15 12:30N 30°01' W 093°60'0 0.0
2018-May-15 12:00N 30°01' W 093°60'0 0.8
2018-May-15 11:30N 30°01' W 093°59'0 0.0
2018-May-15 11:00N 30°01' W 093°59'3 6.3
2018-May-15 10:30N 30°03' W 094°02'3 6.1
2018-May-15 09:57N 30°05' W 094°05'0 0.0
2018-May-15 09:30N 30°05' W 094°05'0 0.0
2018-May-15 09:00N 30°05' W 094°05'0 0.0
2018-May-15 08:29N 30°05' W 094°05'0 0.0
2018-May-15 08:00N 30°05' W 094°05'1 2.3
2018-May-15 07:30N 30°05' W 094°04'0 0.0
2018-May-15 07:00N 30°05' W 094°04'0 0.5
2018-May-15 06:30N 30°05' W 094°04'0 0.3
2018-May-15 06:00N 30°05' W 094°04'2 3.1
2018-May-15 05:30N 30°04' W 094°02'0 0.8
2018-May-15 05:00N 30°04' W 094°02'0 0.0
2018-May-15 04:30N 30°04' W 094°02'0 0.0
2018-May-15 04:00N 30°04' W 094°02'0 0.0
2018-May-15 03:30N 30°04' W 094°02'0 0.0
2018-May-15 03:00N 30°04' W 094°02'0 0.0
2018-May-15 02:30N 30°04' W 094°02'0 0.0
2018-May-15 02:00N 30°04' W 094°02'0 0.0
2018-May-15 01:30N 30°04' W 094°02'0 0.0
2018-May-15 01:00N 30°04' W 094°02'0 0.0
2018-May-15 00:29N 30°04' W 094°02'0 0.0
2018-May-15 00:00N 30°04' W 094°02'0 0.0
2018-May-14 23:29N 30°04' W 094°02'0 0.0
2018-May-14 23:00N 30°04' W 094°02'0 0.0
2018-May-14 22:30N 30°04' W 094°02'0 0.0
2018-May-14 22:00N 30°04' W 094°02'0 0.0
2018-May-14 21:30N 30°04' W 094°02'0 0.0
2018-May-14 20:59N 30°04' W 094°02'0 0.0
2018-May-14 20:29N 30°04' W 094°02'0 0.0
2018-May-14 20:00N 30°04' W 094°02'0 0.0
2018-May-14 19:30N 30°04' W 094°02'0 0.0
2018-May-14 19:00N 30°04' W 094°02'1 1.1
2018-May-14 18:30N 30°03' W 094°02'3 6.3
2018-May-14 18:00N 30°01' W 093°60'0 0.0
2018-May-14 17:30N 30°01' W 093°60'0 0.5
2018-May-14 17:00N 30°01' W 093°60'0 0.0
2018-May-14 16:30N 30°01' W 093°60'0 0.0
2018-May-14 16:00N 30°01' W 093°60'0 0.0
2018-May-14 15:30N 30°01' W 093°60'0 0.0
2018-May-14 15:00N 30°01' W 093°60'0 0.0
2018-May-14 14:30N 30°01' W 093°60'0 0.0
2018-May-14 14:00N 30°01' W 093°60'0 0.0
2018-May-14 13:30N 30°01' W 093°60'3 5.5
2018-May-14 13:00N 30°03' W 094°02'3 5.0
2018-May-14 12:30N 30°05' W 094°04'1 2.2
2018-May-14 12:00N 30°05' W 094°05'0 0.0
2018-May-14 11:29N 30°05' W 094°05'0 0.0
2018-May-14 10:56N 30°05' W 094°05'0 0.0
2018-May-14 10:30N 30°05' W 094°05'0 0.0
2018-May-14 10:00N 30°05' W 094°05'0 0.0
2018-May-14 09:29N 30°05' W 094°05'0 0.0
2018-May-14 09:00N 30°05' W 094°05'0 0.0
2018-May-14 08:30N 30°05' W 094°05'0 0.1
2018-May-14 08:00N 30°05' W 094°05'1 2.0
2018-May-14 07:30N 30°05' W 094°04'  
Track history (hours):
 
Tides and Currents Weather Stations Pressure Air Temp Water Temp Dewpoint Dewpoint Depression Visibility Wind Speed Wind Dir Waves Ship Positions

Cape Ann

Last reported at 2018-May-24 07:30 UTC. Time now 2018-May-24 07:41 UTC.
Position N 30°01' W 093°60'.

Length 30 m.

MMSI: 366967350.

Date/timePositionNaut miles runAvg speedWind from/ knotsBaromVisibWave heightAir tempDewpointWater temp
2018-May-24 07:30N 30°01' W 093°60'2 4.8
2018-May-24 07:00N 30°02' W 094°02'4 7.5
2018-May-24 06:30N 30°05' W 094°05'0 0.0
2018-May-24 06:00N 30°05' W 094°05'0 0.0
2018-May-24 05:30N 30°05' W 094°05'0 0.0
2018-May-24 05:00N 30°05' W 094°05'0 0.0
2018-May-24 04:11N 30°05' W 094°05'0 0.0
2018-May-24 04:00N 30°05' W 094°05'0 0.0
2018-May-24 03:30N 30°05' W 094°05'0 0.0
2018-May-24 03:00N 30°05' W 094°05'0 0.0
2018-May-24 02:31N 30°05' W 094°05'0 0.0
2018-May-24 02:00N 30°05' W 094°05'0 0.0
2018-May-24 01:30N 30°05' W 094°05'0 0.0
2018-May-24 01:00N 30°05' W 094°05'0 0.0
2018-May-24 00:30N 30°05' W 094°05'0 0.0
2018-May-24 00:00N 30°05' W 094°05'0 0.0
2018-May-23 23:30N 30°05' W 094°05'0 0.0
2018-May-23 23:00N 30°05' W 094°05'0 0.0
2018-May-23 22:30N 30°05' W 094°05'0 0.0
2018-May-23 22:00N 30°05' W 094°05'0 0.0
2018-May-23 21:29N 30°05' W 094°05'0 0.0
2018-May-23 21:00N 30°05' W 094°05'0 0.9
2018-May-23 20:30N 30°05' W 094°04'3 6.4
2018-May-23 20:00N 30°02' W 094°02'0 0.3
2018-May-23 19:30N 30°02' W 094°02'0 0.2
2018-May-23 19:00N 30°02' W 094°02'1 2.3
2018-May-23 18:30N 30°01' W 094°01'1 2.3
2018-May-23 18:00N 30°02' W 094°02'4 7.2
2018-May-23 17:31N 30°05' W 094°05'0 0.0
2018-May-23 17:00N 30°05' W 094°05'0 0.0
2018-May-23 16:30N 30°05' W 094°05'0 0.0
2018-May-23 16:00N 30°05' W 094°05'0 0.0
2018-May-23 15:30N 30°05' W 094°05'0 0.0
2018-May-23 15:00N 30°05' W 094°05'0 0.0
2018-May-23 14:30N 30°05' W 094°05'0 0.0
2018-May-23 14:00N 30°05' W 094°05'1 2.8
2018-May-23 13:30N 30°04' W 094°03'3 5.4
2018-May-23 13:00N 30°02' W 094°02'1 1.3
2018-May-23 12:30N 30°01' W 094°02'4 8.4
2018-May-23 12:00N 30°00' W 093°57'2 4.7
2018-May-23 11:30N 30°01' W 093°60'0 0.0
2018-May-23 11:00N 30°01' W 093°60'2 3.8
2018-May-23 10:30N 30°01' W 094°02'1 2.3
2018-May-23 10:00N 30°03' W 094°02'0 0.0
2018-May-23 09:30N 30°03' W 094°02'0 0.0
2018-May-23 08:58N 30°03' W 094°02'0 0.0
2018-May-23 08:30N 30°03' W 094°02'0 0.0
2018-May-23 08:00N 30°03' W 094°02'0 0.0
2018-May-23 07:29N 30°03' W 094°02'0 0.0
2018-May-23 07:00N 30°03' W 094°02'0 0.0
2018-May-23 06:30N 30°03' W 094°02'0 0.0
2018-May-23 05:59N 30°03' W 094°02'0 0.0
2018-May-23 05:30N 30°03' W 094°02'0 0.0
2018-May-23 05:00N 30°03' W 094°02'0 0.0
2018-May-23 04:30N 30°03' W 094°02'0 0.0
2018-May-23 03:58N 30°03' W 094°02'0 0.3
2018-May-23 03:30N 30°02' W 094°02'0 0.1
2018-May-23 03:00N 30°02' W 094°02'0 0.0
2018-May-23 02:30N 30°02' W 094°02'0 0.8
2018-May-23 02:00N 30°02' W 094°02'1 2.3
2018-May-23 01:30N 30°01' W 094°01'0 0.0
2018-May-23 01:00N 30°01' W 094°01'3 5.7
2018-May-23 00:30N 30°01' W 093°58'4 8.5
2018-May-23 00:00N 29°59' W 093°53'2 0.2
2018-May-22 15:57N 29°58' W 093°51'0 0.8
2018-May-22 15:31N 29°58' W 093°51'3 6.0
2018-May-22 15:00N 29°59' W 093°48'4 7.3
2018-May-22 14:30N 30°01' W 093°45'3 5.3
2018-May-22 14:00N 30°04' W 093°43'0 0.4
2018-May-22 13:16N 30°04' W 093°43'0 0.0
2018-May-22 07:14N 30°04' W 093°43'0 0.0
2018-May-22 06:52N 30°04' W 093°43'0 0.0
2018-May-22 06:29N 30°04' W 093°43'0 0.0
2018-May-22 05:59N 30°04' W 093°43'0 0.1
2018-May-22 01:07N 30°04' W 093°43'1 8.3
2018-May-22 01:01N 30°03' W 093°43'4 8.4
2018-May-22 00:30N 29°60' W 093°47'4 8.9
2018-May-22 00:01N 29°58' W 093°51'5 9.5
2018-May-21 23:30N 29°60' W 093°57'4 7.3
2018-May-21 23:01N 30°01' W 094°01'2 3.4
2018-May-21 22:30N 30°02' W 094°02'0 0.0
2018-May-21 22:01N 30°02' W 094°02'0 0.8
2018-May-21 21:30N 30°02' W 094°02'1 1.9
2018-May-21 21:01N 30°01' W 094°01'3 5.1
2018-May-21 20:30N 30°01' W 093°58'4 7.3
2018-May-21 20:01N 29°59' W 093°54'3 5.8
2018-May-21 19:31N 29°58' W 093°51'0 0.0
2018-May-21 19:00N 29°58' W 093°51'0 0.0
2018-May-21 18:30N 29°58' W 093°51'0 0.0
2018-May-21 18:01N 29°58' W 093°51'0 0.0
2018-May-21 17:30N 29°58' W 093°51'0 0.0
2018-May-21 17:00N 29°58' W 093°51'0 0.0
2018-May-21 16:31N 29°58' W 093°51'0 0.0
2018-May-21 16:00N 29°58' W 093°51'0 0.0
2018-May-21 15:30N 29°58' W 093°51'0 0.0
2018-May-21 14:59N 29°58' W 093°51'0 0.0
2018-May-21 14:30N 29°58' W 093°51'0 0.1
2018-May-21 14:00N 29°58' W 093°51'3 6.5
2018-May-21 13:30N 29°59' W 093°55'3 6.0
2018-May-21 13:00N 30°01' W 093°58'1 2.8
2018-May-21 12:31N 30°01' W 093°60'0 0.0
2018-May-21 12:00N 30°01' W 093°60'0 0.5
2018-May-21 11:30N 30°01' W 093°60'1 1.5
2018-May-21 11:00N 30°01' W 093°59'0 1.0
2018-May-21 10:31N 30°01' W 093°58'4 8.0
2018-May-21 10:00N 29°59' W 093°54'3 6.2
2018-May-21 09:30N 29°57' W 093°52'1 2.2
2018-May-21 09:01N 29°56' W 093°53'0 0.1
2018-May-21 08:30N 29°56' W 093°52'2 4.9
2018-May-21 08:01N 29°58' W 093°51'2 3.2
2018-May-21 07:31N 29°56' W 093°52'2 3.1
2018-May-21 07:00N 29°58' W 093°51'0 0.2
2018-May-21 06:30N 29°58' W 093°51'0 0.0
2018-May-21 06:01N 29°58' W 093°51'0 0.0
2018-May-21 05:31N 29°58' W 093°51'0 0.0
2018-May-21 05:00N 29°58' W 093°51'0 0.0
2018-May-21 04:28N 29°58' W 093°51'0 0.0
2018-May-21 04:01N 29°58' W 093°51'0 0.0
2018-May-21 03:31N 29°58' W 093°51'0 0.0
2018-May-21 03:01N 29°58' W 093°51'2 4.4
2018-May-21 02:30N 29°56' W 093°52'0 0.4
2018-May-21 02:00N 29°56' W 093°52'2 4.0
2018-May-21 01:30N 29°58' W 093°51'0 0.0
2018-May-21 01:01N 29°58' W 093°51'3 5.9
2018-May-21 00:30N 29°59' W 093°55'4 8.4
2018-May-21 00:00N 30°01' W 093°59'0 0.0
2018-May-20 23:31N 30°01' W 093°59'0 0.0
2018-May-20 23:01N 30°01' W 093°59'0 0.7
2018-May-20 22:30N 30°01' W 093°59'1 1.5
2018-May-20 22:00N 30°01' W 093°58'0 0.0
2018-May-20 21:30N 30°01' W 093°58'1 1.8
2018-May-20 21:01N 30°00' W 093°59'0 0.5
2018-May-20 20:31N 30°01' W 093°59'1 1.2
2018-May-20 20:01N 30°01' W 093°58'0 0.0
2018-May-20 19:31N 30°01' W 093°58'0 0.0
2018-May-20 19:01N 30°01' W 093°58'0 0.0
2018-May-20 18:31N 30°01' W 093°58'0 0.0
2018-May-20 18:00N 30°01' W 093°58'0 0.0
2018-May-20 17:30N 30°01' W 093°58'0 0.0
2018-May-20 17:01N 30°01' W 093°58'0 0.0
2018-May-20 16:31N 30°01' W 093°58'1 1.1
2018-May-20 16:01N 30°01' W 093°57'5 9.3
2018-May-20 15:30N 29°59' W 093°52'4 7.5
2018-May-20 15:00N 29°55' W 093°53'5 9.3
2018-May-20 14:30N 29°51' W 093°56'0 0.3
2018-May-20 14:01N 29°52' W 093°56'0 0.1
2018-May-20 13:30N 29°52' W 093°56'0 0.0
2018-May-20 13:00N 29°52' W 093°56'4 7.8
2018-May-20 12:30N 29°55' W 093°54'4 8.7
2018-May-20 12:00N 29°59' W 093°52'510.0
2018-May-20 11:31N 29°60' W 093°57'5 9.3
2018-May-20 11:01N 30°02' W 094°02'3 5.2
2018-May-20 10:30N 30°04' W 094°03'0 0.0
2018-May-20 10:00N 30°04' W 094°03'1 1.1
2018-May-20 09:30N 30°04' W 094°03'2 2.4
2018-May-20 08:46N 30°05' W 094°05'0 0.0
2018-May-20 08:30N 30°05' W 094°05'0 0.0
2018-May-20 08:00N 30°05' W 094°05'0 0.0
2018-May-20 07:30N 30°05' W 094°05'0 0.0
2018-May-20 07:00N 30°05' W 094°05'0 0.0
2018-May-20 06:30N 30°05' W 094°05'0 0.0
2018-May-20 06:00N 30°05' W 094°05'0 0.0
2018-May-20 05:30N 30°05' W 094°05'0 0.0
2018-May-20 04:59N 30°05' W 094°05'0 0.0
2018-May-20 04:30N 30°05' W 094°05'0 0.0
2018-May-20 04:00N 30°05' W 094°05'0 0.0
2018-May-20 03:30N 30°05' W 094°05'0 0.0
2018-May-20 03:00N 30°05' W 094°05'0 0.0
2018-May-20 02:30N 30°05' W 094°05'0 0.0
2018-May-20 02:00N 30°05' W 094°05'0 0.0
2018-May-20 01:30N 30°05' W 094°05'0 0.0
2018-May-20 01:00N 30°05' W 094°05'0 0.0
2018-May-20 00:30N 30°05' W 094°05'0 0.0
2018-May-20 00:00N 30°05' W 094°05'0 0.0
2018-May-19 23:29N 30°05' W 094°05'0 0.0
2018-May-19 22:56N 30°05' W 094°05'1 1.9
2018-May-19 22:30N 30°05' W 094°04'0 0.0
2018-May-19 22:00N 30°05' W 094°04'0 0.2
2018-May-19 21:30N 30°05' W 094°04'4 7.1
2018-May-19 21:00N 30°01' W 094°02'2 4.1
2018-May-19 20:30N 30°01' W 093°60'0 0.0
2018-May-19 20:00N 30°01' W 093°60'0 0.0
2018-May-19 19:30N 30°01' W 093°60'0 0.0
2018-May-19 19:00N 30°01' W 093°60'0 0.0
2018-May-19 18:30N 30°01' W 093°60'0 0.0
2018-May-19 18:00N 30°01' W 093°60'0 0.0
2018-May-19 17:30N 30°01' W 093°60'0 0.0
2018-May-19 17:00N 30°01' W 093°60'0 0.0
2018-May-19 16:30N 30°01' W 093°60'0 0.0
2018-May-19 16:00N 30°01' W 093°60'0 0.0
2018-May-19 15:30N 30°01' W 093°60'0 0.0
2018-May-19 15:00N 30°01' W 093°60'0 0.0
2018-May-19 14:30N 30°01' W 093°60'0 0.0
2018-May-19 14:00N 30°01' W 093°60'0 0.0
2018-May-19 13:30N 30°01' W 093°60'0 0.0
2018-May-19 13:00N 30°01' W 093°60'0 0.0
2018-May-19 12:30N 30°01' W 093°60'0 0.0
2018-May-19 12:00N 30°01' W 093°60'0 0.0
2018-May-19 11:30N 30°01' W 093°60'0 0.0
2018-May-19 11:00N 30°01' W 093°60'0 0.0
2018-May-19 10:30N 30°01' W 093°60'0 0.0
2018-May-19 10:00N 30°01' W 093°60'0 0.0
2018-May-19 09:30N 30°01' W 093°60'0 0.0
2018-May-19 09:00N 30°01' W 093°60'0 0.0
2018-May-19 08:30N 30°01' W 093°60'0 0.0
2018-May-19 08:00N 30°01' W 093°60'0 0.0
2018-May-19 07:30N 30°01' W 093°60'0 0.0
2018-May-19 07:00N 30°01' W 093°60'1 1.2
2018-May-19 06:30N 30°00' W 093°59'0 0.2
2018-May-19 06:00N 30°01' W 093°59'0 0.7
2018-May-19 05:30N 30°01' W 093°59'1 1.8
2018-May-19 05:00N 30°01' W 093°60'0 0.0
2018-May-19 04:30N 30°01' W 093°60'0 0.0
2018-May-19 04:00N 30°01' W 093°60'0 0.0
2018-May-19 03:30N 30°01' W 093°60'0 0.0
2018-May-19 03:00N 30°01' W 093°60'0 0.0
2018-May-19 02:30N 30°01' W 093°60'0 0.0
2018-May-19 02:00N 30°01' W 093°60'0 0.0
2018-May-19 01:30N 30°01' W 093°60'0 0.0
2018-May-19 01:00N 30°01' W 093°60'0 0.0
2018-May-19 00:30N 30°01' W 093°60'0 0.0
2018-May-19 00:00N 30°01' W 093°60'0 0.5
2018-May-18 23:30N 30°01' W 093°60'0 0.2
2018-May-18 23:00N 30°01' W 093°60'1 1.6
2018-May-18 22:30N 30°01' W 093°59'1 1.5
2018-May-18 22:00N 30°01' W 093°58'0 0.0
2018-May-18 21:30N 30°01' W 093°58'0 0.0
2018-May-18 21:00N 30°01' W 093°58'0 0.0
2018-May-18 20:30N 30°01' W 093°58'2 4.9
2018-May-18 20:00N 29°59' W 093°56'4 8.1
2018-May-18 19:30N 29°58' W 093°51'510.0
2018-May-18 19:00N 29°54' W 093°54'2 4.7
2018-May-18 18:30N 29°52' W 093°56'0 0.0
2018-May-18 18:00N 29°52' W 093°56'0 0.0
2018-May-18 17:30N 29°52' W 093°56'0 0.0
2018-May-18 17:00N 29°52' W 093°56'0 0.0
2018-May-18 16:30N 29°52' W 093°56'0 0.0
2018-May-18 16:00N 29°52' W 093°56'0 0.0
2018-May-18 15:30N 29°52' W 093°56'0 0.0
2018-May-18 15:00N 29°52' W 093°56'0 0.0
2018-May-18 14:30N 29°52' W 093°56'0 0.0
2018-May-18 14:00N 29°52' W 093°56'0 0.0
2018-May-18 13:30N 29°52' W 093°56'0 0.0
2018-May-18 13:00N 29°52' W 093°56'0 0.0
2018-May-18 12:30N 29°52' W 093°56'0 0.0
2018-May-18 12:00N 29°52' W 093°56'0 0.0
2018-May-18 11:30N 29°52' W 093°56'0 0.0
2018-May-18 11:00N 29°52' W 093°56'0 0.0
2018-May-18 10:30N 29°52' W 093°56'0 0.0
2018-May-18 10:00N 29°52' W 093°56'0 0.0
2018-May-18 09:30N 29°52' W 093°56'2 4.9
2018-May-18 09:00N 29°50' W 093°58'1 2.6
2018-May-18 08:30N 29°51' W 093°58'0 0.1
2018-May-18 08:00N 29°51' W 093°58'1 1.4
2018-May-18 07:30N 29°50' W 093°58'2 3.9
2018-May-18 07:00N 29°48' W 093°57'2 3.0
2018-May-18 06:30N 29°50' W 093°58'0 0.0
2018-May-18 06:00N 29°50' W 093°58'0 0.0
2018-May-18 05:30N 29°50' W 093°58'0 0.0
2018-May-18 05:00N 29°50' W 093°58'0 0.0
2018-May-18 04:30N 29°50' W 093°58'0 0.0
2018-May-18 04:00N 29°50' W 093°58'0 0.0
2018-May-18 03:30N 29°50' W 093°58'0 1.0
2018-May-18 03:00N 29°50' W 093°58'1 1.5
2018-May-18 02:30N 29°51' W 093°58'0 0.0
2018-May-18 02:00N 29°51' W 093°58'1 1.1
2018-May-18 01:30N 29°50' W 093°58'2 4.2
2018-May-18 01:00N 29°48' W 093°57'1 2.4
2018-May-18 00:30N 29°50' W 093°58'2 3.1
2018-May-18 00:00N 29°51' W 093°58'0 0.2
2018-May-17 23:30N 29°51' W 093°58'1 2.4
2018-May-17 23:00N 29°50' W 093°58'1 2.0
2018-May-17 22:30N 29°51' W 093°58'0 0.0
2018-May-17 22:00N 29°51' W 093°58'1 2.3
2018-May-17 21:30N 29°50' W 093°57'2 3.5
2018-May-17 21:00N 29°52' W 093°56'0 0.0
2018-May-17 20:30N 29°52' W 093°56'0 0.0
2018-May-17 20:00N 29°52' W 093°56'0 0.0
2018-May-17 19:30N 29°52' W 093°56'0 0.0
2018-May-17 18:59N 29°52' W 093°56'0 0.0
2018-May-17 18:30N 29°52' W 093°56'0 0.0
2018-May-17 18:00N 29°52' W 093°56'0 0.0
2018-May-17 17:29N 29°52' W 093°56'0 0.0
2018-May-17 17:00N 29°52' W 093°56'0 0.0
2018-May-17 16:30N 29°52' W 093°56'0 0.0
2018-May-17 15:59N 29°52' W 093°56'0 0.0
2018-May-17 15:30N 29°52' W 093°56'0 0.0
2018-May-17 15:00N 29°52' W 093°56'0 0.0
2018-May-17 14:30N 29°52' W 093°56'0 0.0
2018-May-17 14:00N 29°52' W 093°56'3 5.6
2018-May-17 13:30N 29°54' W 093°54'3 5.3
2018-May-17 13:00N 29°56' W 093°52'0 0.1
2018-May-17 12:30N 29°56' W 093°53'2 3.8
2018-May-17 12:00N 29°57' W 093°51'3 6.3
2018-May-17 11:30N 29°59' W 093°54'0 0.1
2018-May-17 11:00N 29°59' W 093°54'3 5.7
2018-May-17 10:30N 29°58' W 093°51'0 0.0
2018-May-17 10:00N 29°58' W 093°51'0 0.0
2018-May-17 09:30N 29°58' W 093°51'0 0.0
2018-May-17 09:00N 29°58' W 093°51'0 0.0
2018-May-17 08:30N 29°58' W 093°51'0 0.0
2018-May-17 08:00N 29°58' W 093°51'0 0.0
2018-May-17 07:30N 29°58' W 093°51'0 0.0
2018-May-17 07:00N 29°58' W 093°51'0 0.0
2018-May-17 06:30N 29°58' W 093°51'0 0.0
2018-May-17 05:59N 29°58' W 093°51'0 0.0
2018-May-17 05:30N 29°58' W 093°51'0 0.0
2018-May-17 05:00N 29°58' W 093°51'0 0.0
2018-May-17 04:30N 29°58' W 093°51'0 0.0
2018-May-17 04:00N 29°58' W 093°51'0 0.0
2018-May-17 03:30N 29°58' W 093°51'0 0.0
2018-May-17 03:00N 29°58' W 093°51'0 0.0
2018-May-17 02:30N 29°58' W 093°51'0 0.0
2018-May-17 02:00N 29°58' W 093°51'0 0.0
2018-May-17 01:30N 29°58' W 093°51'0 0.0
2018-May-17 01:00N 29°58' W 093°51'0 0.0
2018-May-17 00:30N 29°58' W 093°51'0 0.0
2018-May-17 00:00N 29°58' W 093°51'0 0.0
2018-May-16 23:30N 29°58' W 093°51'0 0.0
2018-May-16 23:00N 29°58' W 093°51'0 0.0
2018-May-16 22:30N 29°58' W 093°51'1 1.3
2018-May-16 22:00N 29°59' W 093°52'4 8.7
2018-May-16 21:30N 29°60' W 093°56'3 5.7
2018-May-16 21:00N 30°01' W 093°60'0 0.0
2018-May-16 20:30N 30°01' W 093°60'3 5.4
2018-May-16 20:00N 29°60' W 093°57'4 8.5
2018-May-16 19:30N 29°59' W 093°52'1 1.4
2018-May-16 19:00N 29°58' W 093°51'0 0.0
2018-May-16 18:30N 29°58' W 093°51'0 0.0
2018-May-16 18:00N 29°58' W 093°51'0 0.0
2018-May-16 17:30N 29°58' W 093°51'0 0.0
2018-May-16 16:59N 29°58' W 093°51'1 2.3
2018-May-16 16:30N 29°59' W 093°52'1 1.5
2018-May-16 16:00N 29°59' W 093°53'2 3.5
2018-May-16 15:30N 29°58' W 093°51'0 0.5
2018-May-16 15:00N 29°58' W 093°51'0 0.0
2018-May-16 14:30N 29°58' W 093°51'0 0.0
2018-May-16 14:00N 29°58' W 093°51'0 0.0
2018-May-16 13:30N 29°58' W 093°51'1 1.3
2018-May-16 12:59N 29°59' W 093°52'4 8.8
2018-May-16 12:30N 29°60' W 093°56'5 9.6
2018-May-16 12:00N 30°01' W 094°02'4 8.5
2018-May-16 11:30N 30°05' W 094°05'0 0.0
2018-May-16 11:00N 30°05' W 094°05'0 0.2
2018-May-16 10:30N 30°05' W 094°05'0 0.0
2018-May-16 09:53N 30°05' W 094°05'0 0.0
2018-May-16 09:30N 30°05' W 094°05'0 0.0
2018-May-16 08:57N 30°05' W 094°05'0 0.0
2018-May-16 08:30N 30°05' W 094°05'0 0.0
2018-May-16 08:00N 30°05' W 094°05'0 0.0
2018-May-16 07:29N 30°05' W 094°05'0 0.0
2018-May-16 06:57N 30°05' W 094°05'0 0.0
2018-May-16 06:29N 30°05' W 094°05'0 0.0
2018-May-16 05:59N 30°05' W 094°05'0 0.0
2018-May-16 05:28N 30°05' W 094°05'0 0.0
2018-May-16 05:00N 30°05' W 094°05'0 0.0
2018-May-16 04:30N 30°05' W 094°05'0 0.0
2018-May-16 04:00N 30°05' W 094°05'0 0.0
2018-May-16 03:29N 30°05' W 094°05'0 0.0
2018-May-16 02:58N 30°05' W 094°05'0 0.0
2018-May-16 02:30N 30°05' W 094°05'0 0.0
2018-May-16 02:00N 30°05' W 094°05'0 0.0
2018-May-16 01:30N 30°05' W 094°05'0 0.0
2018-May-16 01:00N 30°05' W 094°05'0 0.0
2018-May-16 00:29N 30°05' W 094°05'3 6.9
2018-May-16 00:00N 30°02' W 094°02'0 0.9
2018-May-15 23:30N 30°02' W 094°02'0 0.2
2018-May-15 23:00N 30°02' W 094°02'4 7.2
2018-May-15 22:30N 30°01' W 093°58'2 4.0
2018-May-15 22:00N 29°60' W 093°56'0 0.0
2018-May-15 21:30N 29°60' W 093°56'2 3.4
2018-May-15 21:00N 29°59' W 093°54'1 1.0
2018-May-15 20:30N 29°59' W 093°55'4 8.6
2018-May-15 20:00N 30°01' W 093°60'0 0.4
2018-May-15 19:30N 30°01' W 093°60'0 0.0
2018-May-15 19:00N 30°01' W 093°60'0 0.0
2018-May-15 18:30N 30°01' W 093°60'0 0.0
2018-May-15 18:00N 30°01' W 093°60'0 0.0
2018-May-15 17:30N 30°01' W 093°60'0 0.0
2018-May-15 17:00N 30°01' W 093°60'0 0.0
2018-May-15 16:30N 30°01' W 093°60'0 0.0
2018-May-15 16:00N 30°01' W 093°60'0 0.0
2018-May-15 15:30N 30°01' W 093°60'0 0.0
2018-May-15 15:00N 30°01' W 093°60'0 0.0
2018-May-15 14:30N 30°01' W 093°60'0 0.0
2018-May-15 14:00N 30°01' W 093°60'0 0.0
2018-May-15 13:30N 30°01' W 093°60'0 0.0
2018-May-15 13:00N 30°01' W 093°60'0 0.0
2018-May-15 12:30N 30°01' W 093°60'0 0.0
2018-May-15 12:00N 30°01' W 093°60'0 0.8
2018-May-15 11:30N 30°01' W 093°59'0 0.0
2018-May-15 11:00N 30°01' W 093°59'3 6.3
2018-May-15 10:30N 30°03' W 094°02'3 6.1
2018-May-15 09:57N 30°05' W 094°05'0 0.0
2018-May-15 09:30N 30°05' W 094°05'0 0.0
2018-May-15 09:00N 30°05' W 094°05'0 0.0
2018-May-15 08:29N 30°05' W 094°05'0 0.0
2018-May-15 08:00N 30°05' W 094°05'1 2.3
2018-May-15 07:30N 30°05' W 094°04'0 0.0
2018-May-15 07:00N 30°05' W 094°04'0 0.5
2018-May-15 06:30N 30°05' W 094°04'0 0.3
2018-May-15 06:00N 30°05' W 094°04'2 3.1
2018-May-15 05:30N 30°04' W 094°02'0 0.8
2018-May-15 05:00N 30°04' W 094°02'0 0.0
2018-May-15 04:30N 30°04' W 094°02'0 0.0
2018-May-15 04:00N 30°04' W 094°02'0 0.0
2018-May-15 03:30N 30°04' W 094°02'0 0.0
2018-May-15 03:00N 30°04' W 094°02'0 0.0
2018-May-15 02:30N 30°04' W 094°02'0 0.0
2018-May-15 02:00N 30°04' W 094°02'0 0.0
2018-May-15 01:30N 30°04' W 094°02'0 0.0
2018-May-15 01:00N 30°04' W 094°02'0 0.0
2018-May-15 00:29N 30°04' W 094°02'0 0.0
2018-May-15 00:00N 30°04' W 094°02'0 0.0
2018-May-14 23:29N 30°04' W 094°02'0 0.0
2018-May-14 23:00N 30°04' W 094°02'0 0.0
2018-May-14 22:30N 30°04' W 094°02'0 0.0
2018-May-14 22:00N 30°04' W 094°02'0 0.0
2018-May-14 21:30N 30°04' W 094°02'0 0.0
2018-May-14 20:59N 30°04' W 094°02'0 0.0
2018-May-14 20:29N 30°04' W 094°02'0 0.0
2018-May-14 20:00N 30°04' W 094°02'0 0.0
2018-May-14 19:30N 30°04' W 094°02'0 0.0
2018-May-14 19:00N 30°04' W 094°02'1 1.1
2018-May-14 18:30N 30°03' W 094°02'3 6.3
2018-May-14 18:00N 30°01' W 093°60'0 0.0
2018-May-14 17:30N 30°01' W 093°60'0 0.5
2018-May-14 17:00N 30°01' W 093°60'0 0.0
2018-May-14 16:30N 30°01' W 093°60'0 0.0
2018-May-14 16:00N 30°01' W 093°60'0 0.0
2018-May-14 15:30N 30°01' W 093°60'0 0.0
2018-May-14 15:00N 30°01' W 093°60'0 0.0
2018-May-14 14:30N 30°01' W 093°60'0 0.0
2018-May-14 14:00N 30°01' W 093°60'0 0.0
2018-May-14 13:30N 30°01' W 093°60'3 5.5
2018-May-14 13:00N 30°03' W 094°02'3 5.0
2018-May-14 12:30N 30°05' W 094°04'1 2.2
2018-May-14 12:00N 30°05' W 094°05'0 0.0
2018-May-14 11:29N 30°05' W 094°05'0 0.0
2018-May-14 10:56N 30°05' W 094°05'0 0.0
2018-May-14 10:30N 30°05' W 094°05'0 0.0
2018-May-14 10:00N 30°05' W 094°05'0 0.0
2018-May-14 09:29N 30°05' W 094°05'0 0.0
2018-May-14 09:00N 30°05' W 094°05'0 0.0
2018-May-14 08:30N 30°05' W 094°05'0 0.1
2018-May-14 08:00N 30°05' W 094°05'1 2.0
2018-May-14 07:30N 30°05' W 094°04'  

Dump ship's entire track history